Aérodrome :
LOGIN :

S'inscrire | Disclaimer

   EN    FR    IT 

 










Légende :    VFR   VFR Marginal   IFR   IFR Intensif   IFR Très Intensif
Visi : 
Plafond : 
>= 8 km
>= 3000ft
5 à 8 km
1000 à 3000 ft
1500m à 5 km
500 à 1000 ft
800 à 1500m
200 à 500 ft
< 800m
< 200 ft
Symboles :   Orages  Brouillard  Fortes neiges  Fortes précipitations  Vent > 20 kt
SIGMETs :   Divers  Orages  Givrage  Turbulence  Onde Orograph.  Cendres Volcan.







- Altitude de l'aérodrome : 782 ft
- Code IATA : BGY


LIME - Orio al Serio International - Bergamo

DERNIER METAR :
  • 221050Z VRB03KT 9999 FEW050 26/18 Q1017 NOSIG

METARs EXPIRÉS :
  • 221020Z 26006KT CAVOK 26/18 Q1017 NOSIG
  • 220950Z 27007KT 240V310 CAVOK 25/18 Q1017 NOSIG
  • 220920Z VRB02KT CAVOK 25/17 Q1017 NOSIG
  • 220850Z VRB02KT CAVOK 25/17 Q1017 NOSIG
  • 220820Z VRB02KT CAVOK 23/17 Q1016 NOSIG

TAF TAF LIME
Valide du 22 à 06h jusqu'au 23 à 06h UTC


220500Z 2206/2306 VRB05KT 9999 SCT060
Pas de NOTAMs connus pour ce terrain.
1 SIGMET publié pour la FIR Milano (LIMM) :
 
Turbulence forte
LIMM SIGMET 5 VALID 220950/221150 LIIP
LIMM MILANO FIR SEV TURB OBS NNE OF LINE N4557 E00855 - N4536 E01349 ABV FL100 MOV E WKN=



MET'MAP, la Météo Aéronautique d'un coup d'oeil ! - Copyright ORBIFLY Décembre 2007 - Disclaimer

ORBIFLY MET'MAP TEAM :

Programmation & Développement : Alexandra Zaïnal
Conception & Développement : Baudouin d'Aumeries
Co-Programmation & Développement : Marc-Olivier Méhu
Soutien technique & logistique : Manuel Goepfert

Contact : metmap@orbifly.com




SOURCES & CREDITS :

   NOAA